Terminal Aerodrome Forecast
Issued by NWS

Home | Current Version | Previous Version | Text Only | Print | Product List | Glossary On
Versions: 1 2 3 4 5 6 7 8 9 10 11 12 13 14 15
000
FTUS41 KCAR 201120
TAFBHB
TAF
KBHB 201120Z 2012/2112 34008G15KT P6SM SCT045
      TEMPO 2012/2015 BKN040
     FM201500 34013G21KT P6SM SCT050
     FM210000 36009G15KT P6SM FEW150
     FM210500 34005KT P6SM SKC=

USA.gov is the U.S. government's official web portal to all federal, state and local government web resources and services.